Time;durP1;ratioP1;P1;durP2;ratioP2;P2;SDS_P1;SDS_P2;PMS_P1;PMS_P2;Temp;Humidity;BMP_temperature;BMP_pressure;BME280_temperature;BME280_humidity;BME280_pressure;Samples;Min_cycle;Max_cycle;Signal;HPM_P1;HPM_P2
2022/07/19 00:01:31;;;;;;;101.80;96.63;;;;;;;34.84;27.53;101696.56;5035182;28;20044;-76
2022/07/19 00:03:57;;;;;;;101.82;97.25;;;;;;;34.80;27.64;101693.75;5035147;28;20520;-74
2022/07/19 00:06:22;;;;;;;100.38;95.60;;;;;;;34.76;27.68;101690.06;5035726;28;20060;-74
2022/07/19 00:08:48;;;;;;;104.03;99.28;;;;;;;34.73;27.52;101688.06;5035127;28;20112;-75
2022/07/19 00:11:13;;;;;;;103.53;98.80;;;;;;;34.70;27.83;101691.59;5035102;28;20068;-75
2022/07/19 00:13:38;;;;;;;99.00;94.55;;;;;;;34.66;27.50;101685.97;5035506;28;20029;-74
2022/07/19 00:16:04;;;;;;;99.78;95.15;;;;;;;34.63;27.71;101692.38;5035098;28;20044;-75
2022/07/19 00:18:29;;;;;;;102.47;97.88;;;;;;;34.59;27.73;101676.69;5035134;28;20049;-76
2022/07/19 00:20:55;;;;;;;101.82;96.82;;;;;;;34.55;27.58;101685.03;5035293;28;20038;-74
2022/07/19 00:23:20;;;;;;;100.22;95.43;;;;;;;34.52;27.83;101674.56;5034280;28;20037;-74
2022/07/19 00:25:45;;;;;;;101.93;97.40;;;;;;;34.49;27.43;101675.34;5034543;28;20061;-74
2022/07/19 00:28:11;;;;;;;103.07;98.45;;;;;;;34.46;27.98;101676.13;5035142;28;20029;-75
2022/07/19 00:30:36;;;;;;;104.43;99.63;;;;;;;34.42;27.62;101675.25;5034547;28;20060;-77
2022/07/19 00:33:04;;;;;;;99.43;94.78;;;;;;;34.39;28.00;101674.03;5035015;28;20029;-75
2022/07/19 00:35:30;;;;;;;100.75;96.07;;;;;;;34.35;27.76;101663.97;5034574;28;20025;-74
2022/07/19 00:37:55;;;;;;;97.97;93.50;;;;;;;34.31;27.64;101666.75;5033566;28;20091;-74
2022/07/19 00:40:22;;;;;;;98.05;93.60;;;;;;;34.26;27.88;101661.47;5034516;28;20436;-74
2022/07/19 00:42:48;;;;;;;96.68;92.18;;;;;;;34.24;27.87;101666.66;5034972;28;20029;-75
2022/07/19 00:45:14;;;;;;;95.22;90.82;;;;;;;34.20;27.75;101666.63;5034363;28;20083;-74
2022/07/19 00:47:40;;;;;;;101.00;96.30;;;;;;;34.17;27.80;101672.19;5034282;28;20049;-75
2022/07/19 00:50:06;;;;;;;97.90;93.40;;;;;;;34.12;27.50;101662.13;5034653;28;20079;-75
2022/07/19 00:52:32;;;;;;;92.00;87.70;;;;;;;34.08;27.90;101664.09;5032872;28;20428;-75
2022/07/19 00:54:58;;;;;;;94.80;90.22;;;;;;;34.05;27.92;101665.63;5034444;28;20064;-75
2022/07/19 00:57:24;;;;;;;94.47;90.13;;;;;;;34.02;27.94;101662.75;5034246;28;20390;-76
2022/07/19 00:59:52;;;;;;;95.90;91.45;;;;;;;33.99;28.22;101669.13;5033081;28;20473;-75
2022/07/19 01:02:18;;;;;;;97.20;92.65;;;;;;;33.96;27.92;101678.31;5032868;28;20025;-75
2022/07/19 01:04:44;;;;;;;95.47;91.07;;;;;;;33.91;27.78;101676.66;5033996;28;20029;-73
2022/07/19 01:07:09;;;;;;;93.45;89.05;;;;;;;33.88;27.97;101666.22;5033519;28;20037;-75
2022/07/19 01:09:37;;;;;;;96.03;91.43;;;;;;;33.82;27.82;101665.75;5033971;28;20492;-76
2022/07/19 01:12:03;;;;;;;91.30;87.00;;;;;;;33.81;28.27;101666.91;5034694;28;20039;-75
2022/07/19 01:14:29;;;;;;;93.70;89.30;;;;;;;33.77;27.96;101665.28;5033775;28;20060;-74
2022/07/19 01:16:54;;;;;;;93.43;89.15;;;;;;;33.74;27.70;101671.63;5033878;28;20458;-76
2022/07/19 01:19:19;;;;;;;93.90;89.40;;;;;;;33.70;28.03;101665.97;5032122;28;20047;-74
2022/07/19 01:21:45;;;;;;;94.13;89.43;;;;;;;33.67;27.84;101666.75;5033788;28;20544;-74
2022/07/19 01:24:10;;;;;;;92.10;87.75;;;;;;;33.63;27.99;101668.66;5034014;28;20037;-76
2022/07/19 01:26:36;;;;;;;93.88;89.03;;;;;;;33.59;28.45;101662.19;5033695;28;20524;-75
2022/07/19 01:29:01;;;;;;;92.60;88.07;;;;;;;33.56;28.30;101663.75;5033808;28;20036;-75
2022/07/19 01:31:26;;;;;;;90.53;86.32;;;;;;;33.52;28.24;101665.69;5033525;28;20044;-74
2022/07/19 01:33:52;;;;;;;92.88;88.07;;;;;;;33.49;28.03;101662.81;5033474;28;20037;-75
2022/07/19 01:36:17;;;;;;;91.93;87.63;;;;;;;33.45;28.02;101660.00;5032901;28;20038;-74
2022/07/19 01:38:42;;;;;;;92.47;88.10;;;;;;;33.42;28.02;101662.75;5032098;28;20473;-75
2022/07/19 01:41:08;;;;;;;92.90;88.60;;;;;;;33.38;28.17;101669.09;5033509;28;20033;-76
2022/07/19 01:43:34;;;;;;;91.38;87.13;;;;;;;33.35;28.24;101661.44;5032942;28;20159;-75
2022/07/19 01:46:00;;;;;;;91.38;86.88;;;;;;;33.30;28.31;101661.75;5033494;28;20037;-76
2022/07/19 01:48:25;;;;;;;94.22;89.65;;;;;;;33.26;28.25;101663.69;5033501;28;20030;-76
2022/07/19 01:50:51;;;;;;;94.80;90.50;;;;;;;33.25;28.32;101661.28;5033323;28;20040;-75
2022/07/19 01:53:16;;;;;;;90.68;86.30;;;;;;;33.21;28.11;101664.00;5032120;28;20036;-76
2022/07/19 01:55:42;;;;;;;92.32;87.95;;;;;;;33.17;28.07;101666.78;5033346;28;20035;-75
2022/07/19 01:58:07;;;;;;;89.53;85.38;;;;;;;33.15;28.34;101663.53;5033405;28;20496;-74
2022/07/19 02:00:32;;;;;;;89.30;84.88;;;;;;;33.12;28.59;101663.50;5032138;28;20174;-74
2022/07/19 02:02:58;;;;;;;91.82;87.43;;;;;;;33.09;28.44;101662.25;5033115;28;20034;-75
2022/07/19 02:05:23;;;;;;;88.75;84.65;;;;;;;33.05;28.13;101660.56;5032284;28;20038;-76
2022/07/19 02:07:49;;;;;;;87.97;83.82;;;;;;;33.01;28.60;101657.66;5033329;28;20029;-75
2022/07/19 02:10:15;;;;;;;87.63;83.47;;;;;;;32.97;28.42;101654.03;5032069;28;20470;-75
2022/07/19 02:12:40;;;;;;;86.40;82.00;;;;;;;32.93;28.52;101648.34;5033246;28;20433;-75
2022/07/19 02:15:07;;;;;;;84.25;80.30;;;;;;;32.90;28.23;101645.50;5032358;28;20541;-74
2022/07/19 02:17:33;;;;;;;88.88;84.70;;;;;;;32.89;28.60;101649.50;5042050;28;20041;-74
2022/07/19 02:19:58;;;;;;;87.93;83.75;;;;;;;32.84;28.60;101647.00;5043187;28;20026;-75
2022/07/19 02:22:23;;;;;;;87.32;83.25;;;;;;;32.81;28.61;101642.97;5037672;28;20041;-76
2022/07/19 02:24:49;;;;;;;89.85;85.65;;;;;;;32.78;28.70;101642.88;5031937;28;20038;-75
2022/07/19 02:27:14;;;;;;;86.57;82.03;;;;;;;32.74;28.31;101642.84;5033499;28;20037;-74
2022/07/19 02:29:40;;;;;;;89.47;85.07;;;;;;;32.70;28.58;101637.16;5033261;28;20037;-74
2022/07/19 02:32:06;;;;;;;88.93;84.85;;;;;;;32.67;28.56;101639.91;5033002;28;20386;-75
2022/07/19 02:34:32;;;;;;;85.72;81.80;;;;;;;32.63;28.62;101634.25;5033078;28;20100;-74
2022/07/19 02:36:57;;;;;;;86.35;82.30;;;;;;;32.60;28.81;101634.19;5033174;28;20129;-76
2022/07/19 02:39:22;;;;;;;87.50;83.47;;;;;;;32.56;28.60;101639.72;5032658;28;20029;-75
2022/07/19 02:41:48;;;;;;;87.25;82.82;;;;;;;32.53;28.88;101632.06;5032977;28;20116;-75
2022/07/19 02:44:13;;;;;;;89.18;84.75;;;;;;;32.50;28.86;101632.81;5031643;28;20095;-74
2022/07/19 02:46:38;;;;;;;84.32;80.38;;;;;;;32.47;28.94;101630.72;5036458;28;20041;-75
2022/07/19 02:49:04;;;;;;;85.13;81.13;;;;;;;32.44;28.80;101625.91;5036353;28;20389;-74
2022/07/19 02:51:29;;;;;;;87.13;83.03;;;;;;;32.40;29.02;101617.41;5035285;28;20034;-75
2022/07/19 02:53:55;;;;;;;88.18;83.65;;;;;;;32.37;29.05;101618.16;5036829;28;20040;-74
2022/07/19 02:56:20;;;;;;;86.60;82.43;;;;;;;32.34;29.08;101614.13;5036510;28;20033;-74
2022/07/19 02:58:45;;;;;;;87.88;83.75;;;;;;;32.30;29.03;101606.84;5036404;28;20026;-75
2022/07/19 03:01:11;;;;;;;82.55;78.75;;;;;;;32.27;29.08;101616.78;5036098;28;20035;-75
2022/07/19 03:03:47;;;;;;;87.20;83.00;;;;;;;32.24;29.22;101608.34;5036366;28;20033;-75
2022/07/19 03:06:15;;;;;;;90.63;86.43;;;;;;;32.20;29.15;101604.66;5037159;28;20096;-75
2022/07/19 03:08:40;;;;;;;86.10;81.80;;;;;;;32.18;29.04;101618.19;5036412;28;20034;-75
2022/07/19 03:11:06;;;;;;;83.28;79.35;;;;;;;32.13;29.03;101619.31;5036307;28;20454;-75
2022/07/19 03:13:31;;;;;;;85.40;81.10;;;;;;;32.11;29.20;101610.50;5035876;28;20413;-75
2022/07/19 03:15:57;;;;;;;82.25;78.45;;;;;;;32.08;29.02;101622.41;5036147;28;20167;-75
2022/07/19 03:18:22;;;;;;;86.22;82.13;;;;;;;32.05;29.27;101614.75;5036352;28;20482;-75
2022/07/19 03:20:47;;;;;;;88.32;84.22;;;;;;;32.01;29.15;101609.09;5034724;28;20124;-74
2022/07/19 03:23:13;;;;;;;83.45;79.45;;;;;;;31.98;29.10;101615.44;5036062;28;20470;-74
2022/07/19 03:25:38;;;;;;;83.68;79.57;;;;;;;31.95;29.28;101612.56;5035988;28;20033;-74
2022/07/19 03:28:04;;;;;;;83.05;79.20;;;;;;;31.91;29.28;101616.06;5035910;28;20087;-75
2022/07/19 03:30:31;;;;;;;82.07;78.13;;;;;;;31.89;29.30;101617.59;5035908;28;20034;-74
2022/07/19 03:32:57;;;;;;;83.47;79.28;;;;;;;31.87;29.02;101609.59;5036286;28;20112;-76
2022/07/19 03:35:22;;;;;;;81.22;77.40;;;;;;;31.83;29.21;101602.31;5034364;28;20100;-75
2022/07/19 03:37:48;;;;;;;84.95;80.88;;;;;;;31.80;29.26;101600.25;5018572;28;20037;-74
2022/07/19 03:40:13;;;;;;;84.18;79.97;;;;;;;31.76;29.41;101600.19;5035514;28;20037;-75
2022/07/19 03:42:38;;;;;;;83.35;79.25;;;;;;;31.73;29.38;101603.72;5035211;28;20037;-75
2022/07/19 03:45:05;;;;;;;83.07;79.15;;;;;;;31.70;29.35;101607.22;5036169;28;20053;-76
2022/07/19 03:47:30;;;;;;;82.35;78.45;;;;;;;31.66;29.45;101601.56;5034009;28;20120;-74
2022/07/19 03:49:57;;;;;;;84.82;80.93;;;;;;;31.64;29.60;101600.31;5035304;28;20032;-77
2022/07/19 03:52:22;;;;;;;85.07;81.07;;;;;;;31.61;29.42;101598.28;5035978;28;20041;-74
2022/07/19 03:54:48;;;;;;;83.15;79.25;;;;;;;31.57;29.34;101598.16;5035018;28;20037;-77
2022/07/19 03:57:13;;;;;;;82.57;78.63;;;;;;;31.55;29.39;101606.13;5034250;28;20112;-76
2022/07/19 03:59:39;;;;;;;79.03;75.30;;;;;;;31.51;29.41;101602.44;5035027;28;20113;-75
2022/07/19 04:02:04;;;;;;;82.63;78.68;;;;;;;31.48;29.47;101601.19;5035278;28;20390;-74
2022/07/19 04:04:29;;;;;;;81.47;77.50;;;;;;;31.46;29.46;101608.31;5034971;28;20037;-74
2022/07/19 04:06:55;;;;;;;81.68;77.88;;;;;;;31.43;29.50;101611.84;5035135;28;20040;-76
2022/07/19 04:09:20;;;;;;;84.88;80.78;;;;;;;31.39;29.22;101600.59;5035177;28;20034;-76
2022/07/19 04:11:46;;;;;;;81.60;77.75;;;;;;;31.36;29.59;101601.28;5035511;28;20033;-75
2022/07/19 04:14:11;;;;;;;82.03;77.93;;;;;;;31.32;29.52;101607.94;5034872;28;20033;-75
2022/07/19 04:16:36;;;;;;;85.68;81.68;;;;;;;31.30;29.54;101610.28;5035307;28;20108;-75
2022/07/19 04:19:02;;;;;;;80.00;76.15;;;;;;;31.26;29.09;101613.00;5035300;28;20140;-74
2022/07/19 04:21:27;;;;;;;82.13;78.13;;;;;;;31.24;29.52;101610.56;5035235;28;20041;-74
2022/07/19 04:23:52;;;;;;;83.55;79.55;;;;;;;31.21;29.64;101607.72;5035348;28;20034;-76
2022/07/19 04:26:18;;;;;;;78.78;75.07;;;;;;;31.17;29.61;101604.84;5035132;28;20113;-74
2022/07/19 04:28:43;;;;;;;83.68;79.78;;;;;;;31.15;29.64;101609.19;5034595;28;20026;-74
2022/07/19 04:31:09;;;;;;;82.38;78.38;;;;;;;31.12;29.61;101610.72;5036463;28;20033;-76
2022/07/19 04:33:34;;;;;;;80.47;76.68;;;;;;;31.09;29.76;101607.81;5036542;28;20478;-75
2022/07/19 04:36:00;;;;;;;79.10;75.30;;;;;;;31.06;29.61;101612.16;5034639;28;20112;-76
2022/07/19 04:38:25;;;;;;;79.10;75.30;;;;;;;31.04;29.78;101617.28;5034724;28;20386;-75
2022/07/19 04:40:50;;;;;;;80.90;76.75;;;;;;;31.01;29.94;101618.81;5033203;28;20124;-74
2022/07/19 04:43:17;;;;;;;81.35;77.57;;;;;;;30.98;29.83;101615.94;5034831;28;20454;-75
2022/07/19 04:45:44;;;;;;;83.57;79.57;;;;;;;30.93;29.63;101611.44;5034171;28;20060;-75
2022/07/19 04:48:10;;;;;;;80.68;76.55;;;;;;;30.91;29.94;101615.75;5034789;28;20041;-75
2022/07/19 04:50:36;;;;;;;82.57;78.35;;;;;;;30.89;29.88;101604.16;5034445;28;20039;-75
2022/07/19 04:53:01;;;;;;;81.38;77.47;;;;;;;30.87;29.82;101606.50;5033921;28;20394;-75
2022/07/19 04:55:26;;;;;;;76.38;72.72;;;;;;;30.85;29.81;101606.06;5034358;28;20029;-76
2022/07/19 04:57:52;;;;;;;80.30;76.35;;;;;;;30.82;29.72;101604.81;5034628;28;20116;-75
2022/07/19 05:00:17;;;;;;;78.97;75.20;;;;;;;30.79;29.67;101608.25;5033070;28;20044;-76
2022/07/19 05:02:43;;;;;;;78.90;74.93;;;;;;;30.76;29.96;101609.78;5034364;28;20034;-76
2022/07/19 05:05:09;;;;;;;80.75;76.85;;;;;;;30.74;29.90;101600.16;5034569;28;20040;-75
2022/07/19 05:07:34;;;;;;;75.47;71.88;;;;;;;30.70;29.79;101597.28;5033960;28;20030;-76
2022/07/19 05:10:00;;;;;;;80.50;76.63;;;;;;;30.69;29.74;101597.66;5034523;28;20055;-75
2022/07/19 05:12:25;;;;;;;77.05;73.35;;;;;;;30.66;29.81;101598.38;5033962;28;20128;-77
2022/07/19 05:14:51;;;;;;;79.43;75.45;;;;;;;30.65;29.65;101596.75;5032709;28;20052;-76
2022/07/19 05:17:16;;;;;;;78.50;74.80;;;;;;;30.61;29.83;101589.09;5033751;28;20033;-76
2022/07/19 05:19:41;;;;;;;75.35;71.70;;;;;;;30.60;29.89;101592.25;5034063;28;20033;-75
2022/07/19 05:22:07;;;;;;;78.25;74.20;;;;;;;30.58;29.80;101597.38;5033599;28;20033;-77
2022/07/19 05:24:33;;;;;;;80.93;77.13;;;;;;;30.56;29.81;101596.94;5033411;28;20038;-75
2022/07/19 05:26:58;;;;;;;76.10;72.47;;;;;;;30.53;29.63;101609.59;5033617;28;20061;-74
2022/07/19 05:29:24;;;;;;;76.75;73.10;;;;;;;30.52;29.81;101599.63;5033785;28;20083;-76
2022/07/19 05:31:49;;;;;;;77.88;73.78;;;;;;;30.50;29.97;101601.97;5033246;28;20454;-76
2022/07/19 05:34:15;;;;;;;75.75;72.05;;;;;;;30.50;29.86;101615.09;5034139;28;20104;-73
2022/07/19 05:36:41;;;;;;;83.85;79.35;;;;;;;30.48;30.07;101615.44;5033427;28;20124;-76
2022/07/19 05:39:06;;;;;;;82.97;78.50;;;;;;;30.46;30.33;101617.78;5033436;28;20029;-77
2022/07/19 05:41:32;;;;;;;79.40;75.15;;;;;;;30.44;30.45;101617.31;5033547;28;20076;-75
2022/07/19 05:43:57;;;;;;;79.55;75.35;;;;;;;30.42;30.14;101619.69;5033485;28;20037;-77
2022/07/19 05:46:23;;;;;;;78.20;74.07;;;;;;;30.40;30.30;101613.66;5033533;28;20030;-77
2022/07/19 05:48:49;;;;;;;75.05;71.10;;;;;;;30.38;30.67;101616.78;5033719;28;20061;-76
2022/07/19 05:51:14;;;;;;;73.38;69.57;;;;;;;30.37;30.54;101614.38;5032677;28;20041;-78
2022/07/19 05:53:40;;;;;;;73.97;70.10;;;;;;;30.36;30.28;101613.53;5033773;28;20052;-77
2022/07/19 05:56:06;;;;;;;76.57;72.30;;;;;;;30.35;30.38;101611.13;5033421;28;20386;-76
2022/07/19 05:58:31;;;;;;;74.45;70.75;;;;;;;30.33;30.62;101605.88;5033745;28;20026;-77
2022/07/19 06:03:40;;;;;;;75.53;71.72;;;;;;;30.31;30.32;101611.00;5033667;28;20492;-75
2022/07/19 06:06:06;;;;;;;76.97;72.93;;;;;;;30.30;30.13;101609.41;5032947;28;20042;-76
2022/07/19 06:08:32;;;;;;;76.60;72.80;;;;;;;30.29;30.24;101613.38;5033237;28;20033;-75
2022/07/19 06:10:57;;;;;;;74.25;70.53;;;;;;;30.29;30.38;101607.78;5033605;28;20041;-76
2022/07/19 06:13:23;;;;;;;76.72;72.70;;;;;;;30.29;30.25;101612.53;5032053;28;20033;-75
2022/07/19 06:15:49;;;;;;;72.63;69.13;;;;;;;30.29;30.40;101606.94;5033405;28;20037;-75
2022/07/19 06:18:15;;;;;;;75.30;71.35;;;;;;;30.28;30.17;101610.91;5032628;28;20128;-76
2022/07/19 06:20:40;;;;;;;76.45;72.53;;;;;;;30.28;30.36;101608.94;5035222;28;20033;-76
2022/07/19 06:23:06;;;;;;;73.70;69.97;;;;;;;30.28;30.38;101606.16;5037072;28;20052;-76
2022/07/19 06:25:31;;;;;;;73.47;69.60;;;;;;;30.29;30.39;101601.38;5037352;28;20034;-76
2022/07/19 06:27:57;;;;;;;72.88;69.25;;;;;;;30.29;30.52;101615.31;5037598;28;20083;-73
2022/07/19 06:30:22;;;;;;;77.03;73.15;;;;;;;30.29;30.18;101616.16;5037126;28;20497;-76
2022/07/19 06:32:47;;;;;;;71.78;68.07;;;;;;;30.29;30.39;101610.56;5037557;28;20381;-77
2022/07/19 06:35:13;;;;;;;73.35;69.75;;;;;;;30.30;30.50;101609.41;5018986;28;20087;-76
2022/07/19 06:37:38;;;;;;;72.22;68.55;;;;;;;30.30;30.62;101606.63;5036995;28;20033;-76
2022/07/19 06:40:04;;;;;;;74.80;71.15;;;;;;;30.31;30.58;101613.00;5036629;28;20096;-76
2022/07/19 06:42:30;;;;;;;74.38;70.78;;;;;;;30.31;30.52;101613.78;5036677;28;20121;-77
2022/07/19 06:44:56;;;;;;;75.15;71.35;;;;;;;30.32;30.75;101611.84;5036372;28;20108;-77
2022/07/19 06:47:21;;;;;;;72.35;68.53;;;;;;;30.33;30.45;101610.66;5036608;28;20528;-75
2022/07/19 06:49:47;;;;;;;75.20;71.50;;;;;;;30.33;30.52;101611.47;5036928;28;20568;-76
2022/07/19 06:52:12;;;;;;;73.75;70.18;;;;;;;30.36;30.50;101607.16;5036847;28;20030;-79
2022/07/19 06:54:37;;;;;;;71.07;67.22;;;;;;;30.38;30.54;101604.81;5036841;28;20041;-79
2022/07/19 06:57:03;;;;;;;80.53;76.72;;;;;;;30.38;30.55;101602.84;5036156;28;20064;-79
2022/07/19 06:59:28;;;;;;;71.40;67.90;;;;;;;30.39;30.47;101610.06;5036302;28;20037;-78
2022/07/19 07:01:54;;;;;;;76.85;72.53;;;;;;;30.41;30.65;101604.09;5035678;28;20128;-79
2022/07/19 07:04:19;;;;;;;73.68;70.07;;;;;;;30.43;30.77;101606.53;5036508;28;20115;-79
2022/07/19 07:06:44;;;;;;;73.93;70.13;;;;;;;30.44;30.76;101608.94;5036365;28;20041;-79
2022/07/19 07:09:10;;;;;;;75.75;72.15;;;;;;;30.46;30.71;101609.41;5035948;28;20037;-79
2022/07/19 07:11:35;;;;;;;72.97;69.38;;;;;;;30.49;30.60;101605.09;5036262;28;20025;-77
2022/07/19 07:14:01;;;;;;;76.55;72.85;;;;;;;30.51;30.77;101611.94;5036693;28;20115;-74
2022/07/19 07:16:26;;;;;;;77.35;73.57;;;;;;;30.52;30.76;101605.22;5036166;28;20034;-78
2022/07/19 07:18:51;;;;;;;73.72;70.00;;;;;;;30.54;30.72;101602.88;5036159;28;20390;-78
2022/07/19 07:21:17;;;;;;;72.40;68.60;;;;;;;30.56;30.86;101600.50;5035745;28;20033;-78
2022/07/19 07:23:42;;;;;;;75.32;71.68;;;;;;;30.58;30.94;101603.75;5036041;28;20026;-76
2022/07/19 07:26:07;;;;;;;74.88;71.15;;;;;;;30.60;30.85;101601.44;5035918;28;20095;-78
2022/07/19 07:28:33;;;;;;;78.43;74.72;;;;;;;30.62;30.68;101606.66;5036482;28;20446;-77
2022/07/19 07:30:58;;;;;;;79.22;75.28;;;;;;;30.64;30.93;101598.72;5035050;28;20116;-78
2022/07/19 07:33:24;;;;;;;76.13;72.32;;;;;;;30.66;31.07;101601.16;5035324;28;20087;-79
2022/07/19 07:35:49;;;;;;;76.70;73.00;;;;;;;30.70;30.84;101593.72;5035820;28;20034;-79
2022/07/19 07:38:15;;;;;;;76.35;72.55;;;;;;;30.73;31.08;101598.56;5035750;28;20037;-79
2022/07/19 07:40:40;;;;;;;76.10;72.15;;;;;;;30.76;31.20;101597.84;5034788;28;20087;-80
2022/07/19 07:43:06;;;;;;;82.10;78.13;;;;;;;30.79;31.26;101599.91;5035202;28;20033;-80
2022/07/19 07:45:32;;;;;;;78.13;74.32;;;;;;;30.83;31.13;101598.03;5035695;28;20090;-79
2022/07/19 07:47:58;;;;;;;78.18;74.50;;;;;;;30.85;31.20;101590.13;5035347;28;20029;-79
2022/07/19 07:50:24;;;;;;;83.45;79.15;;;;;;;30.91;31.19;101585.06;5035441;28;20535;-77
2022/07/19 07:52:49;;;;;;;78.72;74.85;;;;;;;30.94;31.16;101582.38;5035816;28;20030;-78
2022/07/19 07:55:15;;;;;;;75.40;71.80;;;;;;;30.98;31.20;101583.28;5035099;28;20026;-78
2022/07/19 07:57:40;;;;;;;77.25;73.65;;;;;;;31.03;31.20;101582.19;5034342;28;20034;-80
2022/07/19 08:00:07;;;;;;;77.15;73.45;;;;;;;31.07;31.13;101582.25;5035801;28;20420;-75
2022/07/19 08:02:41;;;;;;;78.00;74.30;;;;;;;31.11;31.56;101577.59;5035326;28;20064;-79
2022/07/19 08:05:07;;;;;;;76.15;72.25;;;;;;;31.14;31.45;101577.66;5017573;28;20485;-77
2022/07/19 08:07:32;;;;;;;77.28;73.68;;;;;;;31.17;31.49;101571.38;5035454;28;20038;-77
2022/07/19 08:09:59;;;;;;;78.07;74.32;;;;;;;31.23;31.34;101569.91;5035455;28;20068;-79
2022/07/19 08:12:24;;;;;;;79.03;75.13;;;;;;;31.26;31.47;101571.94;5035261;28;20219;-80
2022/07/19 08:14:50;;;;;;;81.05;77.20;;;;;;;31.32;31.55;101571.66;5035684;28;20514;-78
2022/07/19 08:17:15;;;;;;;80.10;76.18;;;;;;;31.36;31.59;101570.56;5035080;28;20039;-76
2022/07/19 08:19:40;;;;;;;83.93;79.70;;;;;;;31.41;31.45;101564.72;5034885;28;20413;-78
2022/07/19 08:22:06;;;;;;;81.82;77.88;;;;;;;31.45;31.75;101565.63;5017167;28;20034;-79
2022/07/19 08:24:31;;;;;;;79.05;74.78;;;;;;;31.51;31.77;101563.34;5034150;28;20034;-78
2022/07/19 08:26:57;;;;;;;80.78;76.82;;;;;;;31.56;31.72;101562.25;5033559;28;20037;-79
2022/07/19 08:29:22;;;;;;;78.30;74.60;;;;;;;31.60;31.75;101560.31;5033834;28;20175;-82
2022/07/19 08:31:47;;;;;;;80.22;75.78;;;;;;;31.66;31.94;101558.88;5034948;28;20036;-73
2022/07/19 08:34:13;;;;;;;86.50;82.32;;;;;;;31.73;31.86;101555.41;5035255;28;20450;-81
2022/07/19 08:36:38;;;;;;;83.82;79.65;;;;;;;31.78;31.53;101555.94;5034480;28;20037;-81
2022/07/19 08:39:03;;;;;;;80.57;76.75;;;;;;;31.84;31.76;101548.84;5033413;28;20033;-81
2022/07/19 08:41:29;;;;;;;78.95;75.15;;;;;;;31.89;32.09;101556.94;5034392;28;20029;-80
2022/07/19 08:43:55;;;;;;;84.45;80.43;;;;;;;31.96;32.01;101545.13;5033763;28;20037;-81
2022/07/19 08:46:21;;;;;;;84.43;80.43;;;;;;;32.02;32.00;101554.03;5034693;28;20458;-81
2022/07/19 08:48:47;;;;;;;82.95;79.00;;;;;;;32.08;32.24;101547.78;5034778;28;20041;-81
2022/07/19 08:51:13;;;;;;;84.15;80.30;;;;;;;32.14;31.83;101545.47;5034370;28;20124;-79
2022/07/19 08:53:40;;;;;;;84.43;80.32;;;;;;;32.21;31.92;101548.41;5033065;28;20513;-78
2022/07/19 08:57:57;;;;;;;82.87;78.97;;;;;;;32.29;31.83;101555.72;5033265;28;20370;-81
2022/07/19 08:58:52;;;;;;;86.63;82.60;;;;;;;32.38;32.00;101551.88;5032975;28;20046;-81
2022/07/19 09:01:18;;;;;;;89.50;85.22;;;;;;;32.43;32.00;101546.78;5033958;28;20075;-79
2022/07/19 09:04:17;;;;;;;88.25;83.95;;;;;;;32.55;32.10;101548.59;5034445;28;20104;-80
2022/07/19 09:06:49;;;;;;;89.45;85.35;;;;;;;32.59;31.93;101541.09;5021969;28;20454;-81
2022/07/19 09:09:17;;;;;;;89.05;84.70;;;;;;;32.65;32.13;101544.38;5033580;28;20076;-81
2022/07/19 09:11:48;;;;;;;88.63;84.35;;;;;;;32.73;32.38;101544.09;5033620;28;20434;-82
2022/07/19 09:14:17;;;;;;;90.10;85.70;;;;;;;32.81;32.13;101541.41;5032758;28;20080;-81
2022/07/19 09:16:52;;;;;;;;;;;;;;;33.03;31.85;101545.38;5034173;28;20095;-82
2022/07/19 09:19:19;;;;;;;85.80;81.80;;;;;;;33.00;31.87;101540.50;5034126;28;19970;-82
2022/07/19 09:22:03;;;;;;;87.70;83.60;;;;;;;33.05;31.95;101529.81;5034171;28;20033;-82
2022/07/19 09:24:32;;;;;;;96.55;92.15;;;;;;;33.11;31.88;101533.91;5034506;28;20036;-80
2022/07/19 09:27:06;;;;;;;91.40;87.03;;;;;;;33.18;32.25;101528.41;5034582;28;20049;-81
2022/07/19 09:29:34;;;;;;;91.75;87.55;;;;;;;33.27;32.17;101527.31;5034503;28;20036;-78
2022/07/19 09:32:19;;;;;;;91.03;86.82;;;;;;;33.37;32.06;101532.25;5034196;28;20037;-80
2022/07/19 09:34:51;;;;;;;87.85;83.72;;;;;;;33.45;31.99;101533.97;5033792;28;20026;-80
2022/07/19 09:37:17;;;;;;;94.15;89.85;;;;;;;33.53;32.02;101532.06;5033774;28;20039;-79
2022/07/19 09:39:47;;;;;;;93.80;89.18;;;;;;;33.60;31.89;101526.56;5032410;28;20029;-79
2022/07/19 09:42:42;;;;;;;91.03;86.88;;;;;;;33.69;32.17;101531.84;5033422;28;20025;-81
2022/07/19 09:45:17;;;;;;;93.63;89.45;;;;;;;33.80;32.08;101528.00;5031979;28;20048;-81
2022/07/19 09:47:47;;;;;;;94.85;90.45;;;;;;;33.87;32.23;101526.44;5033700;28;20033;-82
2022/07/19 09:50:18;;;;;;;97.28;92.88;;;;;;;33.95;31.84;101520.56;5033196;28;20099;-81
2022/07/19 09:52:45;;;;;;;93.63;89.22;;;;;;;34.04;31.81;101529.44;5033317;28;20064;-81
2022/07/19 09:55:11;;;;;;;92.77;88.67;;;;;;;34.14;31.86;101522.34;5032811;28;20035;-80
2022/07/19 09:57:40;;;;;;;95.85;91.55;;;;;;;34.21;31.71;101519.63;5033269;28;20025;-76
2022/07/19 10:00:07;;;;;;;95.03;90.63;;;;;;;34.30;31.62;101524.91;5033452;28;20026;-80
2022/07/19 10:02:36;;;;;;;94.30;90.10;;;;;;;34.39;31.80;101505.75;5033823;28;20057;-83
2022/07/19 10:05:06;;;;;;;95.18;90.75;;;;;;;34.48;31.57;101516.66;5032449;28;20033;-83
2022/07/19 10:07:32;;;;;;;99.57;95.10;;;;;;;34.56;31.45;101512.69;5033609;28;20059;-79
2022/07/19 10:10:01;;;;;;;100.95;96.45;;;;;;;34.64;31.50;101510.78;5033234;28;20087;-79
2022/07/19 10:12:28;;;;;;;100.78;96.28;;;;;;;34.75;31.32;101510.84;5033582;28;20045;-80
2022/07/19 10:14:55;;;;;;;99.47;94.90;;;;;;;34.82;31.54;101510.91;5033214;28;20565;-76
2022/07/19 10:17:29;;;;;;;103.63;98.82;;;;;;;34.90;31.48;101504.13;5033042;28;20040;-76
2022/07/19 10:19:56;;;;;;;97.97;93.30;;;;;;;35.00;31.37;101511.81;5038003;28;20034;-78
2022/07/19 10:22:25;;;;;;;99.77;95.10;;;;;;;35.10;31.40;101499.06;5035286;28;20116;-78
2022/07/19 10:24:58;;;;;;;100.05;95.53;;;;;;;35.18;31.17;101495.09;5032443;28;20029;-75
2022/07/19 10:27:24;;;;;;;102.18;97.38;;;;;;;35.26;30.89;101498.75;5032438;28;20082;-78
2022/07/19 10:30:09;;;;;;;98.22;93.75;;;;;;;35.36;30.86;101497.16;5033364;28;20037;-78
2022/07/19 10:32:34;;;;;;;103.78;98.97;;;;;;;35.45;31.03;101489.97;5035543;28;20045;-78
2022/07/19 10:35:23;;;;;;;101.45;96.75;;;;;;;35.55;30.59;101489.19;5036614;28;20037;-78
2022/07/19 10:38:08;;;;;;;99.78;95.38;;;;;;;35.65;30.80;101490.47;5036479;28;20026;-78
2022/07/19 10:40:42;;;;;;;107.55;102.70;;;;;;;35.72;30.87;101493.28;5035085;28;20028;-80
2022/07/19 10:43:09;;;;;;;102.38;97.57;;;;;;;35.79;30.68;101486.09;5036553;28;20032;-77
2022/07/19 10:45:36;;;;;;;102.45;97.90;;;;;;;35.86;30.41;101484.09;5037527;28;20386;-79
2022/07/19 10:48:12;;;;;;;105.70;100.95;;;;;;;35.99;30.56;101487.34;5036989;28;20034;-80
2022/07/19 10:50:46;;;;;;;105.13;100.13;;;;;;;36.06;29.95;101486.50;5033581;28;20084;-78
2022/07/19 10:53:40;;;;;;;107.43;102.63;;;;;;;36.15;29.64;101479.31;5032761;28;20060;-79
2022/07/19 10:56:28;;;;;;;107.60;102.63;;;;;;;36.26;29.38;101478.50;5031956;28;20044;-78
2022/07/19 10:58:56;;;;;;;111.32;106.47;;;;;;;36.30;29.32;101471.69;5032905;28;20473;-80
2022/07/19 11:01:23;;;;;;;106.43;101.72;;;;;;;36.38;29.70;101472.47;5032805;28;20079;-79
2022/07/19 11:03:50;;;;;;;105.75;100.95;;;;;;;36.45;29.35;101466.84;5032426;28;20099;-77
2022/07/19 11:06:27;;;;;;;107.33;102.37;;;;;;;36.57;29.46;101455.22;5033090;28;20033;-81
2022/07/19 11:08:55;;;;;;;105.53;100.93;;;;;;;36.64;29.03;101459.19;5035403;28;20256;-78
2022/07/19 11:11:21;;;;;;;106.15;101.30;;;;;;;36.71;29.25;101464.81;5036537;28;20057;-79